• Join FlightAware (Why Join?)
  • Login
  • US Flag 
05:06AM EDT


 

Airport Tracker/Info


-or-


 

Live Flight TrackerFlight Track Log ✈ F-GSPR ✈ 28-Apr-2013 ✈ LFPG / CDG - SBGR / GRU

Flight Track Log - Related Links

Times and Time Zones

All times are in EDT time to prevent confusion due to time zone crossing. See the F-GSPR flight status page for this flight to view local times or setup timezone preferences in your user account.

Time Position Orientation Groundspeed Altitude Reporting Facility
EDT Latitude Longitude Course Direction KTS MPH feet Rate Location/Type
05:08AM 48.9985 2.6050 86° East 189 217 600  Level FlightAware ADS-B
05:08AM 48.9996 2.6260 85° East 190 219 1,300 2,520 Climbing FlightAware ADS-B
05:08AM 49.0009 2.6497 85° East 192 221 2,000 2,520 Climbing FlightAware ADS-B
05:08AM 49.0020 2.6701 85° East 189 217 2,700 2,280 Climbing FlightAware ADS-B
05:09AM 49.0029 2.6902 86° East 192 221 3,200 1,980 Climbing FlightAware ADS-B
05:09AM 49.0039 2.7109 86° East 197 227 3,700 1,320 Climbing FlightAware ADS-B
05:09AM 49.0052 2.7336 85° East 214 246 3,900 960 Climbing FlightAware ADS-B
05:09AM 49.0066 2.7574 85° East 231 266 4,200 1,740 Climbing FlightAware ADS-B
05:10AM 49.0074 2.7775 87° East 235 270 4,700 1,860 Climbing FlightAware ADS-B
05:10AM 49.0075 2.7897 89° East 246 283 4,800 900 Climbing FlightAware ADS-B
05:10AM 49.0068 2.8005 96° East 255 293 4,900 1,800 Climbing FlightAware ADS-B
05:10AM 49.0036 2.8253 101° East 263 303 5,400 2,100 Climbing FlightAware ADS-B
05:10AM 49.0017 2.8359 105° East 267 307 5,600 1,980 Climbing FlightAware ADS-B
05:10AM 48.9989 2.8463 113° Southeast 269 310 5,800 2,760 Climbing FlightAware ADS-B
05:10AM 48.9940 2.8578 123° Southeast 270 311 6,200 3,240 Climbing FlightAware ADS-B
05:10AM 48.9907 2.8633 132° Southeast 268 308 6,400 3,180 Climbing FlightAware ADS-B
05:11AM 48.9820 2.8735 143° Southeast 264 304 6,900 3,480 Climbing FlightAware ADS-B
05:11AM 48.9785 2.8762 153° Southeast 265 305 7,100 1,920 Climbing FlightAware ADS-B
05:11AM 48.9440 2.8840 172° South 277 319 8,100 1,860 Climbing FlightAware
05:12AM 48.9200 2.8760 192° South 283 326 8,800 2,220 Climbing FlightAware
05:12AM 48.9050 2.8580 218° Southwest 282 325 9,400 3,240 Climbing FlightAware
05:12AM 48.8947 2.8289 242° Southwest 288 331 10,100 2,400 Climbing FlightAware ADS-B
05:12AM 48.8879 2.7987 251° West 304 350 10,400 1,140 Climbing FlightAware ADS-B
05:13AM 48.8767 2.7437 253° West 326 375 10,900 1,020 Climbing FlightAware ADS-B
05:13AM 48.8622 2.6748 252° West 350 403 11,400 1,080 Climbing FlightAware ADS-B
05:14AM 48.8466 2.6025 252° West 371 427 12,000 1,440 Climbing FlightAware ADS-B
05:14AM 48.8298 2.5263 252° West 381 438 12,900 1,920 Climbing FlightAware ADS-B
05:15AM 48.8129 2.4488 252° West 383 441 14,000 2,220 Climbing FlightAware ADS-B
05:15AM 48.8079 2.4232 253° West 385 443 14,400 2,220 Climbing FlightAware ADS-B
05:15AM 48.8026 2.3775 260° West 390 449 15,000 1,860 Climbing FlightAware ADS-B
05:15AM 48.8009 2.3375 266° West 393 452 15,400 1,680 Climbing FlightAware ADS-B
05:16AM 48.8007 2.2533 270° West 402 463 16,300 1,620 Climbing FlightAware ADS-B
05:16AM 48.8012 2.1658 271° West 410 472 17,100 -300 Climbing FlightAware ADS-B
05:17AM 48.7998 2.1109 271° West 1 1 16,100 1,620 Descending FlightAware UK
05:17AM 48.8016 2.0609 271° West 416 479 18,100 3,420 Climbing FlightAware ADS-B
05:17AM 48.8015 1.9707 270° West 422 486 18,900 -420 Climbing FlightAware ADS-B
05:18AM 48.8022 1.9199 270° West 414 476 17,800 1,620 Descending FlightAware UK
05:18AM 48.8014 1.8712 270° West 426 490 19,800 1,680 Climbing FlightAware ADS-B
05:18AM 48.8021 1.7949 270° West 424 488 19,000 1,620 Descending FlightAware UK
05:19AM 48.8010 1.7725 270° West 428 493 20,700 1,560 Climbing FlightAware ADS-B
05:19AM 48.8010 1.7041 270° West 426 490 19,800 1,500 Descending FlightAware UK
05:19AM 48.8005 1.6525 270° West 431 496 21,700 1,320 Climbing FlightAware ADS-B
05:20AM 48.7999 1.5939 270° West 428 493 20,600 -1,020 Descending FlightAware UK
05:20AM 48.7996 1.5203 270° West 430 495 21,000 3,420 Climbing FlightAware UK
05:20AM 48.8000 1.5270 270° West 441 507 22,500 1,200 Climbing FlightAware
05:20AM 48.7989 1.4449 270° West 432 497 21,500 -1,500 Descending FlightAware UK
05:21AM 48.7988 1.3889 270° West 440 506 21,700 4,080 Climbing FlightAware UK
05:21AM 48.7990 1.3990 270° West 453 521 23,200 1,560 Climbing FlightAware
05:21AM 48.7988 1.2931 270° West 442 509 22,500 1,200 Descending FlightAware UK
05:22AM 48.7980 1.2430 270° West 461 531 24,200 840 Climbing FlightAware
05:22AM 48.7977 1.1582 270° West 448 516 23,100 -1,500 Descending FlightAware UK
05:22AM 48.7972 1.0989 269° West 450 518 23,400 4,560 Climbing FlightAware UK
05:22AM 48.7950 1.0790 269° West 471 542 25,000 720 Climbing FlightAware
05:23AM 48.7878 1.0196 269° West 452 520 23,700 780 Descending FlightAware UK
05:23AM 48.7780 0.9820 269° West 480 552 25,400 960 Climbing FlightAware
05:23AM 48.7567 0.9312 269° West 458 527 24,200 1,020 Descending FlightAware UK
05:23AM 48.7320 0.8740 269° West 485 558 26,100 960 Climbing FlightAware
05:24AM 48.6977 0.7945 269° West 468 539 25,000 1,020 Descending FlightAware UK
05:24AM 48.6840 0.7580 269° West 488 562 26,800 960 Climbing FlightAware
05:24AM 48.6632 0.7078 269° West 468 539 25,500 780 Descending FlightAware UK
05:25AM 48.6290 0.6290 269° West 497 572 27,400 840 Climbing FlightAware
05:25AM 48.6015 0.5706 269° West 472 543 26,200 -1,740 Descending FlightAware UK
05:25AM 48.5772 0.5197 234° Southwest 478 550 26,400 4,680 Climbing FlightAware UK
05:26AM 48.5740 0.5120 234° Southwest 505 581 28,000 780 Climbing FlightAware
05:26AM 48.5278 0.4159 234° Southwest 480 552 26,900 780 Descending FlightAware UK
05:26AM 48.5130 0.3840 234° Southwest 511 588 28,600 2,520 Climbing FlightAware
05:27AM 48.4570 0.2680 234° Southwest 517 595 29,200 -780 Climbing FlightAware
05:27AM 48.4278 0.2085 234° Southwest 486 559 27,900 600 Descending FlightAware UK
05:28AM 48.4010 0.1530 234° Southwest 524 603 29,600 660 Climbing FlightAware
05:28AM 48.3682 0.0857 234° Southwest 494 568 28,400 1,020 Descending FlightAware UK
05:28AM 48.3470 0.0420 234° Southwest 525 604 30,300 1,500 Climbing FlightAware
05:28AM 48.3338 0.0153 234° Southwest 492 566 29,000 -4,140 Descending FlightAware UK
05:29AM 48.3166 -0.0202 234° Southwest 490 564 29,200 2,880 Climbing FlightAware UK
05:29AM 48.2770 -0.1020 234° Southwest 521 600 31,000 1,440 Climbing FlightAware
05:30AM 48.2110 -0.2230 231° Southwest 520 598 31,000  Level FlightAware
05:30AM 48.1490 -0.3310 229° Southwest 519 597 31,000  Level FlightAware
05:31AM 48.0850 -0.4410 229° Southwest 519 597 31,000  Level FlightAware
05:32AM 48.0130 -0.5660 229° Southwest 521 600 31,000  Level FlightAware
05:33AM 47.9510 -0.6750 230° Southwest 522 601 31,000  Level FlightAware
05:33AM 47.8800 -0.7970 229° Southwest 523 602 31,000  Level FlightAware
05:34AM 47.8230 -0.8950 229° Southwest 525 604 31,000  Level FlightAware
05:35AM 47.7620 -0.9990 229° Southwest 526 605 31,000  Level FlightAware
05:35AM 47.6900 -1.1220 229° Southwest 526 605 31,000  Level FlightAware
05:36AM 47.6260 -1.2300 229° Southwest 525 604 31,000  Level FlightAware
05:37AM 47.5520 -1.3560 229° Southwest 526 605 31,000  Level FlightAware
05:37AM 47.4870 -1.4650 229° Southwest 528 608 31,000  Level FlightAware
05:38AM 47.4240 -1.5700 228° Southwest 530 610 31,000  Level FlightAware
05:39AM 47.3530 -1.6900 229° Southwest 525 604 31,000  Level FlightAware
05:39AM 47.2880 -1.7970 228° Southwest 524 603 31,000  Level FlightAware
05:40AM 47.2140 -1.9190 228° Southwest 524 603 31,000  Level FlightAware
05:41AM 47.1490 -2.0260 228° Southwest 524 603 31,000  Level FlightAware
05:42AM 47.0860 -2.1310 229° Southwest 526 605 31,000  Level FlightAware
05:42AM 47.0140 -2.2470 228° Southwest 530 610 31,000  Level FlightAware
05:43AM 46.9480 -2.3540 228° Southwest 533 613 31,000  Level FlightAware
05:44AM 46.8820 -2.4610 228° Southwest 535 616 31,000  Level FlightAware
05:44AM 46.8060 -2.5850 228° Southwest 538 619 31,000  Level FlightAware
05:45AM 46.7400 -2.6890 227° Southwest 542 624 31,000  Level FlightAware
05:46AM 46.6630 -2.8140 228° Southwest 547 629 31,000  Level FlightAware
05:46AM 46.5980 -2.9160 227° Southwest 545 627 31,000  Level FlightAware
05:47AM 46.5230 -3.0360 228° Southwest 545 627 31,000  Level FlightAware
05:48AM 46.4720 -3.1160 227° Southwest 547 629 31,000  Level FlightAware
05:49AM 46.3060 -3.3780 228° Southwest 548 631 31,000  Level FlightAware
05:50AM 46.2090 -3.5280 227° Southwest 547 629 31,000  Level FlightAware
05:51AM 46.0880 -3.7170 227° Southwest 546 628 31,000  Level FlightAware
05:52AM 46.0780 -3.7310 224° Southwest 546 628 31,000  Level FlightAware
05:53AM 46.0190 -3.8220 227° Southwest 546 628 31,000  Level FlightAware
05:54AM 45.9460 -3.9350 227° Southwest 546 628 31,000  Level FlightAware
05:54AM 45.8880 -4.0250 227° Southwest 546 628 31,000  Level FlightAware
05:55AM 45.8290 -4.1150 227° Southwest 546 628 31,000  Level FlightAware
05:56AM 45.7700 -4.2050 227° Southwest 546 628 31,000  Level FlightAware
05:56AM 45.7120 -4.2950 227° Southwest 546 628 31,000  Level FlightAware
05:57AM 45.6530 -4.3850 227° Southwest 546 628 31,000  Level FlightAware
05:58AM 45.5800 -4.4970 227° Southwest 546 628 31,000  Level FlightAware
05:58AM 45.5210 -4.5870 227° Southwest 546 628 31,000  Level FlightAware
05:59AM 45.4630 -4.6770 227° Southwest 546 628 31,000  Level FlightAware
06:00AM 45.4040 -4.7660 227° Southwest 546 628 31,000  Level FlightAware
06:01AM 45.3310 -4.8780 227° Southwest 546 628 31,000  Level FlightAware
06:01AM 45.2720 -4.9670 227° Southwest 546 628 31,000  Level FlightAware
06:04AM 45.0504 -5.2151 218° Southwest  Level Estimated
06:04AM 44.7170 -5.7530 218° Southwest 564 649 31,000  Level FlightAware
06:05AM 44.6550 -5.8430 226° Southwest 564 649 31,000  Level FlightAware
06:06AM 44.5740 -5.9670 228° Southwest 565 650 31,000 480 Level FlightAware
06:06AM 44.5120 -6.0650 228° Southwest 561 646 31,700 1,080 Climbing FlightAware
06:07AM 44.4270 -6.1980 228° Southwest 561 646 32,600 840 Climbing FlightAware
06:08AM 44.3490 -6.3190 228° Southwest 566 651 33,000 240 Climbing FlightAware
06:09AM 44.2720 -6.4370 228° Southwest 566 651 33,000  Level FlightAware
06:09AM 44.1990 -6.5480 227° Southwest 564 649 33,000  Level FlightAware
06:10AM 44.1300 -6.6540 228° Southwest 563 648 33,000  Level FlightAware
06:11AM 44.0490 -6.7750 227° Southwest 563 648 33,000  Level FlightAware
06:11AM 43.9800 -6.8790 227° Southwest 563 648 33,000  Level FlightAware
06:12AM 43.9030 -6.9960 228° Southwest 564 649 33,000  Level FlightAware
06:14AM 43.7360 -7.2460 227° Southwest 564 649 33,000  Level FlightAware
06:14AM 43.6550 -7.3660 227° Southwest 563 648 33,000  Level FlightAware
06:15AM 43.5810 -7.4750 227° Southwest 562 647 33,000  Level FlightAware
06:16AM 43.5310 -7.5490 227° Southwest 560 644 33,000  Level FlightAware
06:16AM 43.4370 -7.6870 227° Southwest 558 642 33,000  Level FlightAware
06:18AM 43.2680 -7.9340 227° Southwest 556 640 33,000  Level FlightAware
06:19AM 43.1890 -8.0490 227° Southwest 556 640 33,000  Level FlightAware
06:19AM 43.1130 -8.1590 227° Southwest 556 640 33,000  Level FlightAware
06:20AM 43.0550 -8.2420 226° Southwest 553 636 33,000  Level FlightAware
06:21AM 42.9660 -8.3690 226° Southwest 555 639 33,000  Level FlightAware
06:21AM 42.8940 -8.4550 221° Southwest 560 644 33,000  Level FlightAware
06:22AM 42.7990 -8.5470 215° Southwest 560 644 33,000  Level FlightAware
06:23AM 42.7360 -8.6070 215° Southwest 560 644 33,000  Level FlightAware
06:24AM 42.6240 -8.7130 215° Southwest 561 646 33,000  Level FlightAware
06:24AM 42.5480 -8.7840 215° Southwest 564 649 33,000  Level FlightAware
06:25AM 42.4700 -8.8580 215° Southwest 563 648 33,000  Level FlightAware
06:26AM 42.3670 -8.9540 215° Southwest 562 647 33,000  Level FlightAware
06:26AM 42.2780 -9.0360 214° Southwest 562 647 33,000  Level FlightAware
06:27AM 42.1650 -9.1420 215° Southwest 560 644 33,000  Level FlightAware
06:28AM 42.0630 -9.2360 214° Southwest 559 643 33,000  Level FlightAware
06:29AM 41.9830 -9.3090 214° Southwest 560 644 33,000  Level FlightAware
06:29AM 41.8990 -9.3870 215° Southwest 561 646 33,000  Level FlightAware
06:30AM 41.7920 -9.4860 215° Southwest 559 643 33,000  Level FlightAware
06:31AM 41.7090 -9.5640 215° Southwest 555 639 33,000  Level FlightAware
06:31AM 41.6350 -9.6330 215° Southwest 553 636 33,000  Level FlightAware
06:32AM 41.5360 -9.7240 215° Southwest 551 634 33,000  Level FlightAware
06:33AM 41.4450 -9.8080 215° Southwest 549 632 33,000  Level FlightAware
06:34AM 41.3580 -9.8880 215° Southwest 548 631 33,000  Level FlightAware
06:34AM 41.2800 -9.9590 214° Southwest 547 629 33,000  Level FlightAware
06:35AM 41.1850 -10.0450 214° Southwest 548 631 33,000  Level FlightAware
06:36AM 41.1190 -10.1040 214° Southwest 548 631 33,000  Level FlightAware
06:37AM 40.9890 -10.2230 215° Southwest 545 627 33,000  Level FlightAware
06:37AM 40.8730 -10.3280 214° Southwest 547 629 33,000  Level FlightAware
06:38AM 40.7640 -10.4250 214° Southwest 547 629 33,000  Level FlightAware
06:39AM 40.6750 -10.5050 214° Southwest 547 629 33,000  Level FlightAware
06:40AM 40.6030 -10.5680 214° Southwest 547 629 33,000  Level FlightAware
06:41AM 40.5320 -10.6310 214° Southwest 547 629 33,000  Level FlightAware
06:41AM 40.4610 -10.6950 214° Southwest 547 629 33,000  Level FlightAware
06:42AM 40.3710 -10.7740 214° Southwest 547 629 33,000  Level FlightAware
06:43AM 40.3000 -10.8370 214° Southwest 547 629 33,000  Level FlightAware
06:43AM 40.2290 -10.9000 214° Southwest 547 629 33,000  Level FlightAware
06:44AM 40.1570 -10.9630 214° Southwest 547 629 33,000  Level FlightAware
06:45AM 40.0680 -11.0410 214° Southwest 547 629 33,000  Level FlightAware
06:46AM 39.9970 -11.1040 214° Southwest 547 629 33,000  Level FlightAware
06:46AM 39.9260 -11.1670 214° Southwest 547 629 33,000  Level FlightAware
06:47AM 39.8540 -11.2300 214° Southwest 547 629 33,000  Level FlightAware
06:48AM 39.7830 -11.2920 214° Southwest 547 629 33,000  Level FlightAware
06:50AM 39.5750 -11.4734 214° Southwest  Level Estimated
06:51AM 39.4692 -11.5653 214° Southwest  Level Estimated
06:52AM 39.3633 -11.6569 214° Southwest  Level Estimated
06:53AM 39.2573 -11.7482 214° Southwest  Level Estimated
06:54AM 39.1512 -11.8392 214° Southwest  Level Estimated
06:55AM 39.0450 -11.9299 214° Southwest  Level Estimated
06:56AM 38.9388 -12.0204 214° Southwest  Level Estimated
06:57AM 38.8326 -12.1106 213° Southwest  Level Estimated
06:58AM 38.7262 -12.2005 213° Southwest  Level Estimated
06:59AM 38.6198 -12.2902 213° Southwest  Level Estimated
07:00AM 38.5133 -12.3796 213° Southwest  Level Estimated
07:01AM 38.4067 -12.4687 213° Southwest  Level Estimated
07:02AM 38.3001 -12.5576 213° Southwest  Level Estimated
07:03AM 38.1934 -12.6462 213° Southwest  Level Estimated
07:04AM 38.0867 -12.7345 213° Southwest  Level Estimated
07:05AM 37.9799 -12.8226 213° Southwest  Level Estimated
07:06AM 37.8730 -12.9104 213° Southwest  Level Estimated
07:07AM 37.7660 -12.9980 213° Southwest  Level Estimated
07:08AM 37.6590 -13.0854 213° Southwest  Level Estimated
07:09AM 37.5519 -13.1724 213° Southwest  Level Estimated
07:10AM 37.4448 -13.2592 213° Southwest  Level Estimated
07:11AM 37.3376 -13.3458 213° Southwest  Level Estimated
07:12AM 37.2303 -13.4321 213° Southwest  Level Estimated
07:13AM 37.1230 -13.5182 213° Southwest  Level Estimated
07:14AM 37.0156 -13.6041 213° Southwest  Level Estimated
07:15AM 36.9081 -13.6897 213° Southwest  Level Estimated
07:16AM 36.8006 -13.7750 212° Southwest  Level Estimated
07:17AM 36.6930 -13.8602 212° Southwest  Level Estimated
07:18AM 36.5854 -13.9450 212° Southwest  Level Estimated
07:19AM 36.4777 -14.0297 212° Southwest  Level Estimated
07:20AM 36.3699 -14.1141 212° Southwest  Level Estimated
07:21AM 36.2621 -14.1982 212° Southwest  Level Estimated
07:22AM 36.1542 -14.2822 212° Southwest  Level Estimated
07:23AM 36.0463 -14.3659 212° Southwest  Level Estimated
07:24AM 35.9383 -14.4494 212° Southwest  Level Estimated
07:25AM 35.8303 -14.5326 212° Southwest  Level Estimated
07:26AM 35.7221 -14.6157 212° Southwest  Level Estimated
07:27AM 35.6140 -14.6985 212° Southwest  Level Estimated
07:28AM 35.5058 -14.7810 212° Southwest  Level Estimated
07:29AM 35.3975 -14.8634 212° Southwest  Level Estimated
07:30AM 35.2892 -14.9455 212° Southwest  Level Estimated
07:31AM 35.1808 -15.0275 212° Southwest  Level Estimated
07:32AM 35.0723 -15.1092 212° Southwest  Level Estimated
07:32AM 34.0880 -15.7760 212° Southwest 502 578 33,000  Level FlightAware
07:33AM 34.9638 -15.1906 212° Southwest  Level Estimated
07:33AM 34.0080 -15.8340 211° Southwest 499 574 33,000  Level FlightAware
07:34AM 33.9280 -15.8910 211° Southwest 496 571 33,000  Level FlightAware
07:35AM 33.8380 -15.9560 211° Southwest 495 570 33,000  Level FlightAware
07:35AM 33.7580 -16.0130 211° Southwest 495 570 33,000  Level FlightAware
07:36AM 33.6820 -16.0680 211° Southwest 493 567 33,000  Level FlightAware
07:37AM 33.5920 -16.1320 211° Southwest 492 566 33,000  Level FlightAware
07:37AM 33.5140 -16.1870 210° Southwest 490 564 33,000  Level FlightAware
07:38AM 33.4250 -16.2500 211° Southwest 493 567 33,000  Level FlightAware
07:39AM 33.3500 -16.3030 211° Southwest 493 567 33,000  Level FlightAware
07:39AM 33.2710 -16.3590 211° Southwest 496 571 33,000  Level FlightAware
07:40AM 33.1930 -16.4140 211° Southwest 498 573 33,000  Level FlightAware
07:41AM 33.1000 -16.4800 211° Southwest 499 574 33,000  Level FlightAware
07:41AM 33.0200 -16.5360 210° Southwest 499 574 33,000  Level FlightAware
07:42AM 32.9330 -16.5970 210° Southwest 498 573 33,000  Level FlightAware
07:43AM 32.8520 -16.6530 210° Southwest 498 573 33,000  Level FlightAware
07:44AM 32.7640 -16.7150 211° Southwest 497 572 33,000  Level FlightAware
07:44AM 32.6860 -16.7690 210° Southwest 496 571 33,000  Level FlightAware
07:45AM 32.6050 -16.8250 210° Southwest 495 570 33,000  Level FlightAware
07:46AM 32.5140 -16.8880 210° Southwest 491 565 33,000  Level FlightAware
07:46AM 32.4370 -16.9420 211° Southwest 493 567 33,000  Level FlightAware
07:47AM 32.3500 -17.0020 210° Southwest 491 565 33,000  Level FlightAware
07:48AM 32.2730 -17.0540 210° Southwest 492 566 33,000  Level FlightAware
07:48AM 32.1920 -17.1100 210° Southwest 494 568 33,000  Level FlightAware
07:49AM 32.1000 -17.1730 210° Southwest 494 568 33,000  Level FlightAware
07:50AM 32.0220 -17.2260 210° Southwest 492 566 33,000  Level FlightAware
07:51AM 31.9380 -17.2830 210° Southwest 491 565 33,000  Level FlightAware
07:51AM 31.8710 -17.3290 210° Southwest 491 565 33,000  Level FlightAware
07:52AM 31.8040 -17.3740 210° Southwest 491 565 33,000  Level FlightAware
07:53AM 31.7380 -17.4200 211° Southwest 491 565 33,000  Level FlightAware
07:53AM 31.6710 -17.4650 210° Southwest 491 565 33,000  Level FlightAware
07:54AM 31.5870 -17.5220 210° Southwest 491 565 33,000  Level FlightAware
07:55AM 31.5200 -17.5670 210° Southwest 491 565 33,000  Level FlightAware
07:55AM 31.4530 -17.6120 210° Southwest 491 565 33,000  Level FlightAware
07:56AM 31.3700 -17.6690 210° Southwest 491 565 33,000  Level FlightAware
07:57AM 31.3030 -17.7140 210° Southwest 491 565 33,000  Level FlightAware
07:58AM 31.1430 -17.8720 220° Southwest 485 558 33,000  Level FlightAware
07:58AM 31.0790 -17.9210 213° Southwest 485 558 33,000  Level FlightAware
07:59AM 30.9780 -17.9980 213° Southwest 483 556 33,000  Level FlightAware
08:00AM 30.8940 -18.0620 213° Southwest 483 556 33,000  Level FlightAware
08:00AM 30.8340 -18.1070 213° Southwest 482 555 33,000  Level FlightAware
08:01AM 30.7560 -18.1660 213° Southwest 482 555 33,000  Level FlightAware
08:02AM 30.6710 -18.2310 213° Southwest 483 556 33,000  Level FlightAware
08:03AM 30.5950 -18.2880 213° Southwest 483 556 33,000  Level FlightAware
08:03AM 30.5310 -18.3360 213° Southwest 483 556 33,000  Level FlightAware
08:04AM 30.4370 -18.4070 213° Southwest 484 557 33,000  Level FlightAware
08:05AM 30.3560 -18.4670 213° Southwest 484 557 33,000  Level FlightAware
08:05AM 30.2640 -18.5360 213° Southwest 484 557 33,000  Level FlightAware
08:06AM 30.1880 -18.5920 212° Southwest 482 555 33,000  Level FlightAware
08:07AM 30.1080 -18.6520 213° Southwest 486 559 33,000  Level FlightAware
08:07AM 30.0290 -18.7110 213° Southwest 486 559 33,000  Level FlightAware
08:08AM 29.9520 -18.7680 213° Southwest 486 559 33,000  Level FlightAware
08:09AM 29.8670 -18.8310 213° Southwest 482 555 33,000  Level FlightAware
08:09AM 29.8030 -18.8790 213° Southwest 481 554 33,000  Level FlightAware
08:10AM 29.7270 -18.9330 212° Southwest 481 554 33,000  Level FlightAware
08:11AM 29.6630 -18.9790 212° Southwest 481 554 33,000  Level FlightAware
08:12AM 29.5990 -19.0250 212° Southwest 481 554 33,000  Level FlightAware
08:12AM 29.5190 -19.0830 212° Southwest 481 554 33,000  Level FlightAware
08:13AM 29.4550 -19.1290 212° Southwest 481 554 33,000  Level FlightAware
08:14AM 29.3900 -19.1750 212° Southwest 481 554 33,000  Level FlightAware
08:14AM 29.3260 -19.2210 212° Southwest 481 554 33,000  Level FlightAware
08:15AM 29.2620 -19.2670 212° Southwest 481 554 33,000  Level FlightAware
08:16AM 29.1820 -19.3240 212° Southwest 481 554 33,000  Level FlightAware
08:17AM 29.1180 -19.3700 212° Southwest 481 554 33,000  Level FlightAware
08:17AM 29.0540 -19.4160 212° Southwest 481 554 33,000  Level FlightAware
08:18AM 28.9890 -19.4620 212° Southwest 481 554 33,000  Level FlightAware
08:19AM 28.9250 -19.5080 212° Southwest 481 554 33,000  Level FlightAware
08:19AM 28.8450 -19.5650 212° Southwest 481 554 33,000  Level FlightAware
08:22AM 28.6109 -19.7140 209° Southwest  Level Estimated
08:23AM 28.5011 -19.7836 209° Southwest  Level Estimated
08:24AM 28.3912 -19.8530 209° Southwest  Level Estimated
08:25AM 28.2814 -19.9223 209° Southwest  Level Estimated
08:26AM 28.1714 -19.9915 209° Southwest  Level Estimated
08:27AM 28.0615 -20.0605 209° Southwest  Level Estimated
08:28AM 27.9515 -20.1294 209° Southwest  Level Estimated
08:29AM 27.8415 -20.1981 209° Southwest  Level Estimated
08:30AM 27.7315 -20.2667 209° Southwest  Level Estimated
08:31AM 27.6214 -20.3352 209° Southwest  Level Estimated
08:32AM 27.5113 -20.4035 209° Southwest  Level Estimated
08:33AM 27.4011 -20.4717 209° Southwest  Level Estimated
08:34AM 27.2910 -20.5398 209° Southwest  Level Estimated
08:35AM 27.1807 -20.6077 209° Southwest  Level Estimated
08:36AM 27.0705 -20.6755 209° Southwest  Level Estimated
08:37AM 26.9602 -20.7431 209° Southwest  Level Estimated
08:38AM 26.8499 -20.8106 209° Southwest  Level Estimated
08:39AM 26.7396 -20.8780 209° Southwest  Level Estimated
08:40AM 26.6292 -20.9453 209° Southwest  Level Estimated
08:41AM 26.5188 -21.0124 209° Southwest  Level Estimated
08:42AM 26.4084 -21.0794 209° Southwest  Level Estimated
08:43AM 26.2979 -21.1463 208° Southwest  Level Estimated
08:44AM 26.1874 -21.2130 208° Southwest  Level Estimated
08:45AM 26.0769 -21.2796 208° Southwest  Level Estimated
08:46AM 25.9663 -21.3461 208° Southwest  Level Estimated
08:47AM 25.8557 -21.4125 208° Southwest  Level Estimated
08:48AM 25.7451 -21.4788 208° Southwest  Level Estimated
08:49AM 25.6344 -21.5449 208° Southwest  Level Estimated
08:50AM 25.5238 -21.6109 208° Southwest  Level Estimated
08:51AM 25.4130 -21.6767 208° Southwest  Level Estimated
08:52AM 25.3023 -21.7425 208° Southwest  Level Estimated
08:53AM 25.1915 -21.8081 208° Southwest  Level Estimated
08:54AM 25.0807 -21.8736 208° Southwest  Level Estimated
08:55AM 24.9699 -21.9390 208° Southwest  Level Estimated
08:56AM 24.8591 -22.0043 208° Southwest  Level Estimated
08:57AM 24.7482 -22.0695 208° Southwest  Level Estimated
08:58AM 24.6373 -22.1345 208° Southwest  Level Estimated
08:59AM 24.5263 -22.1994 208° Southwest  Level Estimated
09:00AM 24.4154 -22.2643 208° Southwest  Level Estimated
09:01AM 24.3044 -22.3290 208° Southwest  Level Estimated
09:02AM 24.1934 -22.3936 208° Southwest  Level Estimated
09:03AM 24.0823 -22.4580 208° Southwest  Level Estimated
09:04AM 23.9712 -22.5224 208° Southwest  Level Estimated
09:05AM 23.8601 -22.5867 208° Southwest  Level Estimated
09:06AM 23.7490 -22.6508 208° Southwest  Level Estimated
09:07AM 23.6379 -22.7148 208° Southwest  Level Estimated
09:08AM 23.5267 -22.7787 208° Southwest  Level Estimated
09:09AM 23.4155 -22.8426 208° Southwest  Level Estimated
09:10AM 23.3042 -22.9063 208° Southwest  Level Estimated
09:11AM 23.1930 -22.9699 208° Southwest  Level Estimated
09:12AM 23.0817 -23.0334 208° Southwest  Level Estimated
09:13AM 22.9704 -23.0968 208° Southwest  Level Estimated
09:14AM 22.8591 -23.1601 208° Southwest  Level Estimated
09:15AM 22.7477 -23.2232 208° Southwest  Level Estimated
09:16AM 22.6363 -23.2863 208° Southwest  Level Estimated
09:17AM 22.5249 -23.3493 208° Southwest  Level Estimated
09:18AM 22.4135 -23.4122 208° Southwest  Level Estimated
09:19AM 22.3020 -23.4750 208° Southwest  Level Estimated
09:20AM 22.1905 -23.5376 208° Southwest  Level Estimated
09:21AM 22.0790 -23.6002 207° Southwest  Level Estimated
09:22AM 21.9675 -23.6627 207° Southwest  Level Estimated
09:23AM 21.8559 -23.7251 207° Southwest  Level Estimated
09:24AM 21.7444 -23.7874 207° Southwest  Level Estimated
09:25AM 21.6328 -23.8496 207° Southwest  Level Estimated
09:26AM 21.5212 -23.9116 207° Southwest  Level Estimated
09:27AM 21.4095 -23.9736 207° Southwest  Level Estimated
09:28AM 21.2978 -24.0355 207° Southwest  Level Estimated
09:29AM 21.1861 -24.0973 207° Southwest  Level Estimated
09:30AM 21.0744 -24.1591 207° Southwest  Level Estimated
09:31AM 20.9627 -24.2207 207° Southwest  Level Estimated
09:32AM 20.8509 -24.2822 207° Southwest  Level Estimated
09:33AM 20.7391 -24.3437 207° Southwest  Level Estimated
09:34AM 20.6273 -24.4050 207° Southwest  Level Estimated
09:35AM 20.5155 -24.4663 207° Southwest  Level Estimated
09:36AM 20.4037 -24.5274 207° Southwest  Level Estimated
09:37AM 20.2918 -24.5885 207° Southwest  Level Estimated
09:38AM 20.1799 -24.6495 207° Southwest  Level Estimated
09:39AM 20.0680 -24.7104 207° Southwest  Level Estimated
09:40AM 19.9561 -24.7712 207° Southwest  Level Estimated
09:41AM 19.8441 -24.8319 207° Southwest  Level Estimated
09:42AM 19.7322 -24.8926 207° Southwest  Level Estimated
09:43AM 19.6202 -24.9531 207° Southwest  Level Estimated
09:44AM 19.5082 -25.0136 207° Southwest  Level Estimated
09:45AM 19.3961 -25.0740 207° Southwest  Level Estimated
09:46AM 19.2841 -25.1343 207° Southwest  Level Estimated
09:47AM 19.1720 -25.1946 207° Southwest  Level Estimated
09:48AM 19.0599 -25.2547 207° Southwest  Level Estimated
09:49AM 18.9478 -25.3148 207° Southwest  Level Estimated
09:50AM 18.8357 -25.3747 207° Southwest  Level Estimated
09:51AM 18.7235 -25.4346 207° Southwest  Level Estimated
09:52AM 18.6114 -25.4945 207° Southwest  Level Estimated
09:53AM 18.4992 -25.5542 207° Southwest  Level Estimated
09:54AM 18.3870 -25.6139 207° Southwest  Level Estimated
09:55AM 18.2748 -25.6735 207° Southwest  Level Estimated
09:56AM 18.1625 -25.7330 207° Southwest  Level Estimated
09:57AM 18.0503 -25.7924 207° Southwest  Level Estimated
09:58AM 17.9380 -25.8518 207° Southwest  Level Estimated
09:59AM 17.8257 -25.9110 207° Southwest  Level Estimated
10:00AM 17.7134 -25.9702 207° Southwest  Level Estimated
10:01AM 17.6010 -26.0294 207° Southwest  Level Estimated
10:02AM 17.4887 -26.0884 207° Southwest  Level Estimated
10:03AM 17.3763 -26.1474 207° Southwest  Level Estimated
10:04AM 17.2639 -26.2064 207° Southwest  Level Estimated
10:05AM 17.1515 -26.2652 207° Southwest  Level Estimated
10:06AM 17.0391 -26.3240 207° Southwest  Level Estimated
10:07AM 16.9267 -26.3827 207° Southwest  Level Estimated
10:08AM 16.8142 -26.4413 207° Southwest  Level Estimated
10:09AM 16.7018 -26.4998 207° Southwest  Level Estimated
10:10AM 16.5893 -26.5583 206° Southwest  Level Estimated
10:11AM 16.4768 -26.6168 206° Southwest  Level Estimated
10:12AM 16.3643 -26.6751 206° Southwest  Level Estimated
10:13AM 16.2517 -26.7334 206° Southwest  Level Estimated
10:14AM 16.1392 -26.7916 206° Southwest  Level Estimated
10:15AM 16.0266 -26.8498 206° Southwest  Level Estimated
10:16AM 15.9141 -26.9079 206° Southwest  Level Estimated
10:17AM 15.8014 -26.9659 206° Southwest  Level Estimated
10:18AM 15.6888 -27.0239 206° Southwest  Level Estimated
10:19AM 15.5762 -27.0818 206° Southwest  Level Estimated
10:20AM 15.4636 -27.1396 206° Southwest  Level Estimated
10:21AM 15.3509 -27.1974 206° Southwest  Level Estimated
10:22AM 15.2382 -27.2551 206° Southwest  Level Estimated
10:23AM 15.1256 -27.3127 206° Southwest  Level Estimated
10:24AM 15.0128 -27.3703 206° Southwest  Level Estimated
10:25AM 14.9001 -27.4279 206° Southwest  Level Estimated
10:26AM 14.7874 -27.4853 206° Southwest  Level Estimated
10:27AM 14.6747 -27.5427 206° Southwest  Level Estimated
10:28AM 14.5619 -27.6001 206° Southwest  Level Estimated
10:29AM 14.4491 -27.6574 206° Southwest  Level Estimated
10:30AM 14.3363 -27.7146 206° Southwest  Level Estimated
10:31AM 14.2235 -27.7718 206° Southwest  Level Estimated
10:32AM 14.1107 -27.8289 206° Southwest  Level Estimated
10:33AM 13.9979 -27.8860 206° Southwest  Level Estimated
10:34AM 13.8851 -27.9430 206° Southwest  Level Estimated
10:35AM 13.7722 -27.9999 206° Southwest  Level Estimated
10:36AM 13.6593 -28.0568 206° Southwest  Level Estimated
10:37AM 13.5465 -28.1136 206° Southwest  Level Estimated
10:38AM 13.4336 -28.1704 206° Southwest  Level Estimated
10:39AM 13.3207 -28.2271 206° Southwest  Level Estimated
10:40AM 13.2078 -28.2838 206° Southwest  Level Estimated
10:41AM 13.0948 -28.3405 206° Southwest  Level Estimated
10:42AM 12.9819 -28.3970 206° Southwest  Level Estimated
10:43AM 12.8689 -28.4536 206° Southwest  Level Estimated
10:44AM 12.7560 -28.5100 206° Southwest  Level Estimated
10:45AM 12.6430 -28.5664 206° Southwest  Level Estimated
10:46AM 12.5300 -28.6228 206° Southwest  Level Estimated
10:47AM 12.4170 -28.6791 206° Southwest  Level Estimated
10:48AM 12.3040 -28.7354 206° Southwest  Level Estimated
10:49AM 12.1910 -28.7916 206° Southwest  Level Estimated
10:50AM 12.0779 -28.8478 206° Southwest  Level Estimated
10:51AM 11.9649 -28.9039 206° Southwest  Level Estimated
10:52AM 11.8518 -28.9600 206° Southwest  Level Estimated
10:53AM 11.7387 -29.0161 206° Southwest  Level Estimated
10:54AM 11.6257 -29.0720 206° Southwest  Level Estimated
10:55AM 11.5126 -29.1280 206° Southwest  Level Estimated
10:56AM 11.3995 -29.1839 206° Southwest  Level Estimated
10:57AM 11.2864 -29.2397 206° Southwest  Level Estimated
10:58AM 11.1732 -29.2955 206° Southwest  Level Estimated
10:59AM 11.0601 -29.3513 206° Southwest  Level Estimated
11:00AM 10.9470 -29.4070 206° Southwest  Level Estimated
11:01AM 10.8338 -29.4627 206° Southwest  Level Estimated
11:02AM 10.7207 -29.5184 206° Southwest  Level Estimated
11:03AM 10.6075 -29.5739 206° Southwest  Level Estimated
11:04AM 10.4943 -29.6295 206° Southwest  Level Estimated
11:05AM 10.3811 -29.6850 206° Southwest  Level Estimated
11:06AM 10.2679 -29.7405 206° Southwest  Level Estimated
11:07AM 10.1547 -29.7959 206° Southwest  Level Estimated
11:08AM 10.0415 -29.8514 206° Southwest  Level Estimated
11:09AM 9.9283 -29.9067 206° Southwest  Level Estimated
11:10AM 9.8150 -29.9620 206° Southwest  Level Estimated
11:11AM 9.7018 -30.0173 206° Southwest  Level Estimated
11:12AM 9.5885 -30.0725 206° Southwest  Level Estimated
11:13AM 9.4752 -30.1278 206° Southwest  Level Estimated
11:14AM 9.3620 -30.1829 206° Southwest  Level Estimated
11:15AM 9.2487 -30.2381 206° Southwest  Level Estimated
11:16AM 9.1354 -30.2932 206° Southwest  Level Estimated
11:17AM 9.0221 -30.3482 206° Southwest  Level Estimated
11:18AM 8.9088 -30.4033 206° Southwest  Level Estimated
11:19AM 8.7955 -30.4583 206° Southwest  Level Estimated
11:20AM 8.6821 -30.5132 206° Southwest  Level Estimated
11:21AM 8.5688 -30.5681 206° Southwest  Level Estimated
11:22AM 8.4555 -30.6231 206° Southwest  Level Estimated
11:23AM 8.3421 -30.6779 206° Southwest  Level Estimated
11:24AM 8.2288 -30.7327 206° Southwest  Level Estimated
11:25AM 8.1154 -30.7875 206° Southwest  Level Estimated
11:26AM 8.0021 -30.8423 206° Southwest  Level Estimated
11:27AM 7.8887 -30.8971 206° Southwest  Level Estimated
11:28AM 7.7753 -30.9518 206° Southwest  Level Estimated
11:29AM 7.6619 -31.0064 206° Southwest  Level Estimated
11:30AM 7.5485 -31.0611 206° Southwest  Level Estimated
11:31AM 7.4351 -31.1157 206° Southwest  Level Estimated
11:32AM 7.3217 -31.1703 206° Southwest  Level Estimated
11:33AM 7.2083 -31.2249 206° Southwest  Level Estimated
11:34AM 7.0949 -31.2794 206° Southwest  Level Estimated
11:35AM 6.9814 -31.3339 206° Southwest  Level Estimated
11:36AM 6.8680 -31.3884 205° Southwest  Level Estimated
11:37AM 6.7545 -31.4429 205° Southwest  Level Estimated
11:38AM 6.6411 -31.4973 205° Southwest  Level Estimated
11:39AM 6.5276 -31.5517 205° Southwest  Level Estimated
11:40AM 6.4142 -31.6061 205° Southwest  Level Estimated
11:41AM 6.3007 -31.6604 205° Southwest  Level Estimated
11:42AM 6.1872 -31.7148 205° Southwest  Level Estimated
11:43AM 6.0738 -31.7691 205° Southwest  Level Estimated
11:44AM 5.9603 -31.8234 205° Southwest  Level Estimated
11:45AM 5.8468 -31.8777 205° Southwest  Level Estimated
11:46AM 5.7333 -31.9319 205° Southwest  Level Estimated
11:47AM 5.6198 -31.9861 205° Southwest  Level Estimated
11:48AM 5.5063 -32.0403 205° Southwest  Level Estimated
11:49AM 5.3928 -32.0945 205° Southwest  Level Estimated
11:50AM 5.2793 -32.1487 205° Southwest  Level Estimated
11:51AM 5.1658 -32.2028 205° Southwest  Level Estimated
11:52AM 5.0522 -32.2569 205° Southwest  Level Estimated
11:53AM 4.9387 -32.3110 205° Southwest  Level Estimated
11:54AM 4.8252 -32.3651 205° Southwest  Level Estimated
11:55AM 4.7116 -32.4192 205° Southwest  Level Estimated
11:56AM 4.5981 -32.4732 205° Southwest  Level Estimated
11:57AM 4.4845 -32.5273 205° Southwest  Level Estimated
11:58AM 4.3710 -32.5813 205° Southwest  Level Estimated
11:59AM 4.2575 -32.6353 205° Southwest  Level Estimated
12:00PM 4.1439 -32.6893 205° Southwest  Level Estimated
12:01PM 4.0303 -32.7432 205° Southwest  Level Estimated
12:02PM 3.9168 -32.7972 205° Southwest  Level Estimated
12:03PM 3.8032 -32.8511 205° Southwest  Level Estimated
12:04PM 3.6896 -32.9050 205° Southwest  Level Estimated
12:05PM 3.5761 -32.9590 205° Southwest  Level Estimated
12:06PM 3.4625 -33.0129 205° Southwest  Level Estimated
12:07PM 3.3489 -33.0667 205° Southwest  Level Estimated
12:08PM 3.2353 -33.1206 205° Southwest  Level Estimated
12:09PM 3.1217 -33.1745 205° Southwest  Level Estimated
12:10PM 3.0081 -33.2283 205° Southwest  Level Estimated
12:11PM 2.8946 -33.2822 205° Southwest  Level Estimated
12:12PM 2.7810 -33.3360 205° Southwest  Level Estimated
12:13PM 2.6674 -33.3898 205° Southwest  Level Estimated
12:14PM 2.5538 -33.4436 205° Southwest  Level Estimated
12:15PM 2.4402 -33.4974 205° Southwest  Level Estimated
12:16PM 2.3266 -33.5512 205° Southwest  Level Estimated
12:17PM 2.2130 -33.6050 205° Southwest  Level Estimated
12:18PM 2.0993 -33.6588 205° Southwest  Level Estimated
12:19PM 1.9857 -33.7125 205° Southwest  Level Estimated
12:20PM 1.8721 -33.7663 205° Southwest  Level Estimated
12:21PM 1.7585 -33.8200 205° Southwest  Level Estimated
12:22PM 1.6449 -33.8738 205° Southwest  Level Estimated
12:23PM 1.5313 -33.9275 205° Southwest  Level Estimated
12:24PM 1.4177 -33.9812 205° Southwest  Level Estimated
12:25PM 1.3041 -34.0350 205° Southwest  Level Estimated
12:26PM 1.1904 -34.0887 205° Southwest  Level Estimated
12:27PM 1.0768 -34.1424 205° Southwest  Level Estimated
12:28PM 0.9632 -34.1961 205° Southwest  Level Estimated
12:29PM 0.8496 -34.2498 205° Southwest  Level Estimated
12:30PM 0.7360 -34.3035 205° Southwest  Level Estimated
12:31PM 0.6223 -34.3572 205° Southwest  Level Estimated
12:32PM 0.5087 -34.4109 205° Southwest  Level Estimated
12:33PM 0.3951 -34.4646 205° Southwest  Level Estimated
12:34PM 0.2815 -34.5183 205° Southwest  Level Estimated
12:35PM 0.1679 -34.5720 205° Southwest  Level Estimated
12:36PM 0.0542 -34.6257 205° Southwest  Level Estimated
12:37PM -0.0594 -34.6794 205° Southwest  Level Estimated
12:38PM -0.1730 -34.7331 205° Southwest  Level Estimated
12:39PM -0.2866 -34.7868 205° Southwest  Level Estimated
12:40PM -0.4002 -34.8405 205° Southwest  Level Estimated
12:41PM -0.5139 -34.8941 205° Southwest  Level Estimated
12:42PM -0.6275 -34.9478 205° Southwest  Level Estimated
12:43PM -0.7411 -35.0015 205° Southwest  Level Estimated
12:44PM -0.8547 -35.0552 205° Southwest  Level Estimated
12:45PM -0.9683 -35.1090 205° Southwest  Level Estimated
12:46PM -1.0820 -35.1627 205° Southwest  Level Estimated
12:46PM -1.5390 -37.6740 205° Southwest 486 559 37,000  Level FlightAware
12:46PM -1.6090 -37.7110 208° Southwest 487 560 37,000  Level FlightAware
12:47PM -1.1956 -35.2164 205° Southwest  Level Estimated
12:47PM -1.7030 -37.7600 208° Southwest 490 564 37,000  Level FlightAware
12:48PM -1.7720 -37.7950 207° Southwest 490 564 37,000  Level FlightAware
12:49PM -1.8400 -37.8300 207° Southwest 490 564 37,000  Level FlightAware
12:49PM -1.9640 -37.8960 208° Southwest 488 562 37,000  Level FlightAware
12:50PM -2.0430 -37.9380 208° Southwest 489 563 37,000  Level FlightAware
12:51PM -2.1240 -37.9820 208° Southwest 488 562 37,000  Level FlightAware
12:51PM -2.2100 -38.0310 210° Southwest 489 563 37,000  Level FlightAware
12:52PM -2.2870 -38.0750 210° Southwest 488 562 37,000  Level FlightAware
12:53PM -2.3800 -38.1260 209° Southwest 490 564 37,000 -360 Level FlightAware
12:53PM -2.4600 -38.1700 209° Southwest 490 564 36,500 -780 Descending FlightAware
12:54PM -2.5370 -38.2110 208° Southwest 498 573 36,000 -360 Descending FlightAware
12:55PM -2.6290 -38.2620 209° Southwest 495 570 36,000  Level FlightAware
12:56PM -2.7100 -38.3060 208° Southwest 495 570 36,000  Level FlightAware
12:56PM -2.8030 -38.3580 209° Southwest 498 573 36,000  Level FlightAware
12:57PM -2.8820 -38.3960 206° Southwest 498 573 36,000  Level FlightAware
12:58PM -2.9700 -38.4370 205° Southwest 501 577 36,000  Level FlightAware
12:58PM -3.0650 -38.4750 202° Southwest 500 575 36,000  Level FlightAware
12:59PM -3.1520 -38.5060 200° South 501 577 36,000  Level FlightAware
01:00PM -3.2540 -38.5430 200° South 502 578 36,000  Level FlightAware
01:00PM -3.3400 -38.5770 202° Southwest 502 578 36,000  Level FlightAware
01:01PM -3.4270 -38.6110 201° Southwest 499 574 36,000  Level FlightAware
01:02PM -3.5200 -38.6460 201° Southwest 499 574 36,000  Level FlightAware
01:03PM -3.6090 -38.6790 200° South 499 574 36,000  Level FlightAware
01:03PM -3.7090 -38.7170 201° Southwest 498 573 36,000  Level FlightAware
01:04PM -3.7970 -38.7500 201° Southwest 498 573 36,000  Level FlightAware
01:05PM -3.8810 -38.7810 200° South 499 574 36,000  Level FlightAware
01:05PM -3.9770 -38.8160 200° South 499 574 36,000  Level FlightAware
01:06PM -4.0630 -38.8480 200° South 499 574 36,000  Level FlightAware
01:07PM -4.1650 -38.8860 200° South 500 575 36,000  Level FlightAware
01:07PM -4.2510 -38.9180 200° South 501 577 36,000  Level FlightAware
01:08PM -4.3400 -38.9510 200° South 502 578 36,000  Level FlightAware
01:09PM -4.4360 -38.9870 200° South 505 581 36,000  Level FlightAware
01:10PM -4.5240 -39.0200 200° South 506 582 36,000  Level FlightAware
01:10PM -4.6240 -39.0570 200° South 508 585 36,000  Level FlightAware
01:11PM -4.7130 -39.0900 200° South 510 587 36,000  Level FlightAware
01:12PM -4.7980 -39.1220 201° Southwest 511 588 36,000  Level FlightAware
01:12PM -4.8990 -39.1600 201° Southwest 511 588 36,000  Level FlightAware
01:13PM -5.0030 -39.1980 200° South 511 588 36,000  Level FlightAware
01:14PM -5.0980 -39.2330 200° South 511 588 36,000  Level FlightAware
01:15PM -5.2200 -39.2790 201° Southwest 512 589 36,000  Level FlightAware
01:16PM -5.3520 -39.3280 200° South 513 590 36,000  Level FlightAware
01:16PM -5.4280 -39.3560 200° South 513 590 36,000  Level FlightAware
01:17PM -5.5040 -39.3840 200° South 513 590 36,000  Level FlightAware
01:18PM -5.5800 -39.4110 199° South 513 590 36,000  Level FlightAware
01:18PM -5.6550 -39.4390 200° South 513 590 36,000  Level FlightAware
01:19PM -5.7500 -39.4740 200° South 513 590 36,000  Level FlightAware
01:20PM -5.8260 -39.5010 199° South 513 590 36,000  Level FlightAware
01:21PM -5.9020 -39.5290 200° South 513 590 36,000  Level FlightAware
01:21PM -5.9780 -39.5570 200° South 513 590 36,000  Level FlightAware
01:22PM -6.0540 -39.5850 200° South 513 590 36,000  Level FlightAware
01:23PM -6.1480 -39.6190 200° South 513 590 36,000  Level FlightAware
01:23PM -6.2240 -39.6470 200° South 513 590 36,000  Level FlightAware
01:24PM -6.3000 -39.6750 200° South 513 590 36,000  Level FlightAware
01:25PM -6.3760 -39.7030 200° South 513 590 36,000  Level FlightAware
01:27PM -6.5785 -39.7779 200° South  Level Estimated
01:28PM -6.6964 -39.8216 200° South  Level Estimated
01:29PM -6.8144 -39.8653 200° South  Level Estimated
01:30PM -6.9323 -39.9091 200° South  Level Estimated
01:31PM -7.0502 -39.9528 200° South  Level Estimated
01:32PM -7.1682 -39.9966 200° South  Level Estimated
01:33PM -7.2861 -40.0404 200° South  Level Estimated
01:34PM -7.4040 -40.0842 200° South  Level Estimated
01:35PM -7.5219 -40.1280 200° South  Level Estimated
01:36PM -7.6398 -40.1719 200° South  Level Estimated
01:37PM -7.7577 -40.2158 200° South  Level Estimated
01:38PM -7.8756 -40.2597 200° South  Level Estimated
01:39PM -7.9935 -40.3036 200° South  Level Estimated
01:40PM -8.1114 -40.3476 200° South  Level Estimated
01:41PM -8.2293 -40.3916 200° South  Level Estimated
01:42PM -8.3472 -40.4356 200° South  Level Estimated
01:43PM -8.4651 -40.4796 200° South  Level Estimated
01:44PM -8.5829 -40.5237 200° South  Level Estimated
01:45PM -8.7008 -40.5678 200° South  Level Estimated
01:46PM -8.8187 -40.6119 200° South  Level Estimated
01:47PM -8.9365 -40.6561 200° South  Level Estimated
01:48PM -9.0544 -40.7003 200° South  Level Estimated
01:49PM -9.1733 -40.7449 200° South  Level Estimated
01:50PM -9.2922 -40.7895 200° South  Level Estimated
01:51PM -9.4111 -40.8342 200° South  Level Estimated
01:52PM -9.5300 -40.8789 200° South  Level Estimated
01:53PM -9.6489 -40.9236 200° South  Level Estimated
01:54PM -9.7677 -40.9684 200° South  Level Estimated
01:55PM -9.8866 -41.0132 200° South  Level Estimated
01:56PM -10.0055 -41.0580 200° South  Level Estimated
01:57PM -10.1243 -41.1029 200° South  Level Estimated
01:58PM -10.2432 -41.1477 200° South  Level Estimated
01:59PM -10.3621 -41.1927 200° South  Level Estimated
02:00PM -10.4809 -41.2376 200° South  Level Estimated
02:01PM -10.5997 -41.2826 200° South  Level Estimated
02:02PM -10.7186 -41.3276 200° South  Level Estimated
02:03PM -10.8374 -41.3727 200° South  Level Estimated
02:04PM -10.9562 -41.4178 200° South  Level Estimated
02:05PM -11.0750 -41.4630 200° South  Level Estimated
02:06PM -11.1938 -41.5081 200° South  Level Estimated
02:07PM -11.3126 -41.5533 200° South  Level Estimated
02:08PM -11.4314 -41.5986 200° South  Level Estimated
02:09PM -11.5502 -41.6439 200° South  Level Estimated
02:10PM -11.6690 -41.6892 200° South  Level Estimated
02:11PM -11.7877 -41.7346 200° South  Level Estimated
02:12PM -11.9065 -41.7800 201° Southwest  Level Estimated
02:13PM -12.0253 -41.8254 201° Southwest  Level Estimated
02:14PM -12.1440 -41.8709 201° Southwest  Level Estimated
02:15PM -12.2627 -41.9164 201° Southwest  Level Estimated
02:16PM -12.3815 -41.9620 201° Southwest  Level Estimated
02:17PM -12.5002 -42.0076 201° Southwest  Level Estimated
02:18PM -12.6189 -42.0532 201° Southwest  Level Estimated
02:19PM -12.7376 -42.0989 201° Southwest  Level Estimated
02:20PM -12.8563 -42.1446 201° Southwest  Level Estimated
02:21PM -12.9750 -42.1904 201° Southwest  Level Estimated
02:22PM -13.0937 -42.2362 201° Southwest  Level Estimated
02:23PM -13.2124 -42.2821 201° Southwest  Level Estimated
02:24PM -13.3310 -42.3280 201° Southwest  Level Estimated
02:25PM -13.4497 -42.3740 201° Southwest  Level Estimated
02:26PM -13.5684 -42.4200 201° Southwest  Level Estimated
02:27PM -13.6870 -42.4660 201° Southwest  Level Estimated
02:28PM -13.8056 -42.5121 201° Southwest  Level Estimated
02:29PM -13.9243 -42.5582 201° Southwest  Level Estimated
02:30PM -14.0429 -42.6044 201° Southwest  Level Estimated
02:31PM -14.1615 -42.6507 201° Southwest  Level Estimated
02:32PM -14.2801 -42.6969 201° Southwest  Level Estimated
02:33PM -14.3987 -42.7433 201° Southwest  Level Estimated
02:34PM -14.5173 -42.7896 201° Southwest  Level Estimated
02:35PM -14.6358 -42.8361 201° Southwest  Level Estimated
02:36PM -14.7544 -42.8826 201° Southwest  Level Estimated
02:37PM -14.8730 -42.9291 201° Southwest  Level Estimated
02:38PM -14.9915 -42.9757 201° Southwest  Level Estimated
02:39PM -15.1101 -43.0223 201° Southwest  Level Estimated
02:40PM -15.2286 -43.0690 201° Southwest  Level Estimated
02:41PM -15.3471 -43.1157 201° Southwest  Level Estimated
02:42PM -15.4656 -43.1625 201° Southwest  Level Estimated
02:42PM -15.9540 -44.2660 201° Southwest 462 532 38,000  Level FlightAware
02:43PM -15.5841 -43.2094 201° Southwest  Level Estimated
02:43PM -16.0510 -44.3170 207° Southwest 461 531 38,000  Level FlightAware
02:43PM -16.1150 -44.3500 206° Southwest 458 527 38,000  Level FlightAware
02:44PM -16.1900 -44.3900 207° Southwest 458 527 38,000  Level FlightAware
02:45PM -16.2980 -44.4460 206° Southwest 454 522 38,000  Level FlightAware
02:45PM -16.3520 -44.4740 206° Southwest 455 524 38,000  Level FlightAware
02:46PM -16.4610 -44.5320 207° Southwest 455 524 38,000  Level FlightAware
02:47PM -16.5500 -44.5780 206° Southwest 457 526 38,000  Level FlightAware
02:48PM -16.6360 -44.6240 207° Southwest 458 527 38,000  Level FlightAware
02:49PM -16.7100 -44.6630 207° Southwest 458 527 38,000  Level FlightAware
02:49PM -16.7800 -44.7000 207° Southwest 460 529 38,000  Level FlightAware
02:50PM -16.8680 -44.7460 207° Southwest 460 529 38,000  Level FlightAware
02:51PM -16.9490 -44.7880 206° Southwest 459 528 38,000  Level FlightAware
02:51PM -17.0370 -44.8330 206° Southwest 458 527 38,000  Level FlightAware
02:52PM -17.1040 -44.8680 207° Southwest 457 526 38,000  Level FlightAware
02:53PM -17.1810 -44.9090 207° Southwest 457 526 38,000  Level FlightAware
02:54PM -17.2730 -44.9570 206° Southwest 457 526 38,000  Level FlightAware
02:54PM -17.3580 -45.0010 206° Southwest 456 525 38,000  Level FlightAware
02:55PM -17.4360 -45.0420 207° Southwest 454 522 38,000  Level FlightAware
02:56PM -17.5040 -45.0800 208° Southwest 454 522 38,000  Level FlightAware
02:56PM -17.5930 -45.1300 208° Southwest 454 522 38,000  Level FlightAware
02:57PM -17.6670 -45.1700 207° Southwest 454 522 38,000  Level FlightAware
02:58PM -17.7400 -45.2090 207° Southwest 456 525 38,000  Level FlightAware
02:58PM -17.8270 -45.2540 206° Southwest 457 526 38,000  Level FlightAware
02:59PM -17.9030 -45.2940 207° Southwest 458 527 38,000  Level FlightAware
03:00PM -17.9890 -45.3390 206° Southwest 457 526 38,000  Level FlightAware
03:01PM -18.0660 -45.3800 207° Southwest 459 528 38,000  Level FlightAware
03:01PM -18.1390 -45.4180 206° Southwest 462 532 38,000  Level FlightAware
03:02PM -18.2290 -45.4640 206° Southwest 468 539 38,000  Level FlightAware
03:03PM -18.3070 -45.5040 206° Southwest 468 539 38,000  Level FlightAware
03:03PM -18.3960 -45.5490 206° Southwest 470 541 38,000  Level FlightAware
03:04PM -18.4720 -45.5890 207° Southwest 471 542 38,000  Level FlightAware
03:05PM -18.5640 -45.6320 204° Southwest 473 544 38,000  Level FlightAware
03:05PM -18.6250 -45.6610 204° Southwest 473 544 38,000  Level FlightAware
03:06PM -18.7210 -45.7070 204° Southwest 472 543 38,000  Level FlightAware
03:07PM -18.8120 -45.7500 204° Southwest 471 542 38,000  Level FlightAware
03:08PM -18.8910 -45.7890 205° Southwest 467 537 38,000  Level FlightAware
03:08PM -18.9690 -45.8280 205° Southwest 465 535 38,000  Level FlightAware
03:09PM -19.0550 -45.8720 206° Southwest 463 533 38,000  Level FlightAware
03:10PM -19.1330 -45.9110 205° Southwest 463 533 38,000  Level FlightAware
03:10PM -19.2210 -45.9550 205° Southwest 463 533 38,000  Level FlightAware
03:11PM -19.2810 -45.9850 205° Southwest 464 534 38,000  Level FlightAware
03:12PM -19.3840 -46.0350 205° Southwest 464 534 38,000  Level FlightAware
03:12PM -19.4620 -46.0740 205° Southwest 465 535 38,000  Level FlightAware
03:13PM -19.5440 -46.1130 204° Southwest 467 537 38,000  Level FlightAware
03:14PM -19.6290 -46.1540 204° Southwest 468 539 38,000  Level FlightAware
03:15PM -19.7100 -46.1930 204° Southwest 469 540 38,000  Level FlightAware
03:15PM -19.7940 -46.2340 205° Southwest 470 541 38,000  Level FlightAware
03:16PM -19.8770 -46.2740 204° Southwest 468 539 38,000  Level FlightAware
03:17PM -19.9550 -46.3130 205° Southwest 469 540 38,000  Level FlightAware
03:17PM -20.0450 -46.3590 206° Southwest 472 543 38,000  Level FlightAware
03:18PM -20.1260 -46.4000 205° Southwest 475 547 38,000  Level FlightAware
03:19PM -20.2150 -46.4440 205° Southwest 474 545 38,000  Level FlightAware
03:19PM -20.2760 -46.4750 205° Southwest 473 544 38,000  Level FlightAware
03:20PM -20.3750 -46.5250 205° Southwest 474 545 38,000  Level FlightAware
03:21PM -20.4640 -46.5690 205° Southwest 471 542 38,000  Level FlightAware
03:22PM -20.5470 -46.6120 206° Southwest 471 542 38,000  Level FlightAware
03:22PM -20.6280 -46.6520 205° Southwest 471 542 38,000  Level FlightAware
03:23PM -20.7130 -46.6910 203° Southwest 478 550 38,000  Level FlightAware
03:24PM -20.7950 -46.7150 195° South 488 562 38,000  Level FlightAware
03:24PM -20.9020 -46.7370 191° South 482 555 38,000  Level FlightAware
03:25PM -20.9700 -46.7510 191° South 481 554 38,000  Level FlightAware
03:26PM -21.0640 -46.7710 191° South 480 552 38,000 -60 Level FlightAware
03:27PM -21.2010 -46.8000 191° South 478 550 37,900 -600 Descending FlightAware
03:27PM -21.2910 -46.8200 192° South 472 543 37,000 -1,560 Descending FlightAware
03:28PM -21.3930 -46.8420 191° South 487 560 35,700 -1,680 Descending FlightAware
03:29PM -21.4830 -46.8610 191° South 493 567 34,700 -1,500 Descending FlightAware
03:29PM -21.5720 -46.8800 191° South 494 568 33,700 -1,440 Descending FlightAware
03:30PM -21.6760 -46.9020 191° South 493 567 32,700 -1,320 Descending FlightAware
03:31PM -21.7420 -46.9160 191° South 491 565 32,100 -1,440 Descending FlightAware
03:32PM -21.8530 -46.9400 191° South 493 567 30,800 -1,620 Descending FlightAware
03:32PM -21.9380 -46.9590 192° South 499 574 29,600 -1,440 Descending FlightAware
03:33PM -22.0150 -46.9750 191° South 493 567 28,900 -1,200 Descending FlightAware
03:34PM -22.1240 -46.9990 192° South 483 556 27,900 -1,200 Descending FlightAware
03:34PM -22.1970 -47.0150 191° South 474 545 27,200 -1,800 Descending FlightAware
03:35PM -22.2910 -47.0350 191° South 461 531 25,500 -2,400 Descending FlightAware
03:36PM -22.4030 -47.0590 191° South 442 509 23,600 -2,400 Descending FlightAware
03:36PM -22.4830 -47.0770 192° South 441 507 22,100 -2,220 Descending FlightAware
03:37PM -22.5740 -47.0900 188° South 421 484 20,500 -2,160 Descending FlightAware
03:38PM -22.6490 -47.0680 165° South 417 480 19,100 -2,100 Descending FlightAware
03:39PM -22.7230 -47.0370 159° South 413 475 17,700 -1,980 Descending FlightAware
03:39PM -22.8000 -47.0040 158° South 397 457 16,300 -1,860 Descending FlightAware
03:40PM -22.8700 -46.9750 159° South 378 435 15,100 -1,800 Descending FlightAware
03:41PM -22.9420 -46.9440 158° South 366 421 13,800 -1,800 Descending FlightAware
03:41PM -23.0060 -46.9180 159° South 350 403 12,600 -1,740 Descending FlightAware
03:42PM -23.0650 -46.8930 159° South 329 379 11,500 -1,680 Descending FlightAware
03:43PM -23.1290 -46.8660 159° South 309 356 10,300 -1,320 Descending FlightAware
03:43PM -23.1630 -46.8520 159° South 297 342 10,000 -780 Descending FlightAware
03:44PM -23.2010 -46.8350 158° South 293 337 9,600 -1,140 Descending FlightAware
03:44PM -23.2400 -46.8190 159° South 290 334 8,900 -1,320 Descending FlightAware
03:45PM -23.2710 -46.8060 159° South 281 323 8,400 -1,200 Descending FlightAware
03:45PM -23.3080 -46.7900 158° South 279 321 7,800 -1,320 Descending FlightAware
03:46PM -23.3390 -46.7770 159° South 276 318 7,200 -1,200 Descending FlightAware
03:46PM -23.3580 -46.7690 159° South 279 321 7,000 -960 Descending FlightAware
03:46PM -23.3900 -46.7460 147° Southeast 275 316 6,500 -1,020 Descending FlightAware
03:47PM -23.4150 -46.7230 140° Southeast 276 318 6,100 -780 Descending FlightAware
03:47PM -23.4430 -46.6950 137° Southeast 252 290 5,800 -720 Descending FlightAware
03:47PM -23.4530 -46.6810 128° Southeast 242 278 5,600 -1,080 Descending FlightAware
03:48PM -23.4670 -46.6480 115° Southeast 233 268 5,000 -1,200 Descending FlightAware
03:48PM -23.4740 -46.6250 108° East 228 262 4,600 -900 Descending FlightAware
03:49PM -23.4700 -46.6030 79° East 231 266 4,400 -1,080 Descending FlightAware
03:49PM -23.4630 -46.5750 75° East 216 249 3,800 -1,140 Descending FlightAware
03:50PM -23.4550 -46.5470 73° East 173 199 3,400 -840 Descending FlightAware
03:50PM -23.4520 -46.5350 75° East 157 181 3,200 -780 Descending FlightAware
03:50PM -23.4470 -46.5180 72° East 146 168 2,900 -780 Descending FlightAware
03:50PM -23.4440 -46.5070 73° East 143 165 2,700 -840 Descending FlightAware
03:51PM -23.4380 -46.4850 73° East 145 167 2,300 -840 Descending FlightAware